createdAt,value
2022-09-20T00:01:24.195Z,88.37
2022-09-20T00:03:53.055Z,88.40
2022-09-20T00:06:21.509Z,88.24
2022-09-20T00:08:48.650Z,88.16
2022-09-20T00:11:18.397Z,87.81
2022-09-20T00:13:46.428Z,87.95
2022-09-20T00:16:24.273Z,87.99
2022-09-20T00:18:52.356Z,87.63
2022-09-20T00:21:21.861Z,87.82
2022-09-20T00:23:48.314Z,87.43
2022-09-20T00:26:14.778Z,87.49
2022-09-20T00:28:41.881Z,87.01
2022-09-20T00:31:08.276Z,86.72
2022-09-20T00:33:53.200Z,86.71
2022-09-20T00:36:19.589Z,86.65
2022-09-20T00:38:45.971Z,86.86
2022-09-20T00:41:12.464Z,87.06
2022-09-20T00:43:44.379Z,87.00
2022-09-20T00:46:20.797Z,86.86
2022-09-20T00:48:48.539Z,87.11
2022-09-20T00:51:18.051Z,86.94
2022-09-20T00:53:47.639Z,86.97
2022-09-20T00:56:17.774Z,87.24
2022-09-20T00:58:47.222Z,87.34
2022-09-20T01:01:13.750Z,87.21
2022-09-20T01:03:42.137Z,87.52
2022-09-20T01:06:12.081Z,87.73
2022-09-20T01:08:39.695Z,87.40
2022-09-20T01:11:06.169Z,87.58
2022-09-20T01:13:32.597Z,87.66
2022-09-20T01:16:00.406Z,87.75
2022-09-20T01:18:27.641Z,87.74
2022-09-20T01:20:54.634Z,88.27
2022-09-20T01:23:34.717Z,88.47
2022-09-20T01:26:27.069Z,88.56
2022-09-20T01:29:09.397Z,88.82
2022-09-20T01:31:43.364Z,88.96
2022-09-20T01:34:29.793Z,89.32
2022-09-20T01:37:05.345Z,89.35
2022-09-20T01:39:40.185Z,89.39
2022-09-20T01:42:09.445Z,89.18
2022-09-20T01:44:49.360Z,89.63
2022-09-20T01:47:37.425Z,89.59
2022-09-20T01:50:15.504Z,89.65
2022-09-20T01:53:01.407Z,89.61
2022-09-20T01:56:10.322Z,90.08
2022-09-20T01:59:23.549Z,90.34
2022-09-20T02:01:53.351Z,90.53
2022-09-20T02:04:59.845Z,90.43
2022-09-20T02:07:44.087Z,90.79
2022-09-20T02:10:35.399Z,90.89
2022-09-20T02:13:10.874Z,91.05
2022-09-20T02:15:57.020Z,91.28
2022-09-20T02:19:00.854Z,91.23
2022-09-20T02:21:54.834Z,91.37
2022-09-20T02:24:41.187Z,91.40
2022-09-20T02:27:24.308Z,91.64
2022-09-20T02:30:13.220Z,91.51
2022-09-20T02:33:25.089Z,91.52
2022-09-20T02:35:58.700Z,91.38
2022-09-20T02:38:57.526Z,91.79
2022-09-20T02:41:35.970Z,91.65
2022-09-20T02:44:28.589Z,91.67
2022-09-20T02:47:17.331Z,91.61
2022-09-20T02:50:19.942Z,91.30
2022-09-20T02:53:16.561Z,91.79
2022-09-20T02:56:03.690Z,91.78
2022-09-20T02:59:00.393Z,91.83
2022-09-20T03:01:39.693Z,92.06
2022-09-20T03:04:22.350Z,92.58
2022-09-20T03:07:00.993Z,92.87
2022-09-20T03:09:43.512Z,92.84
2022-09-20T03:12:34.238Z,92.93
2022-09-20T03:15:14.263Z,93.09
2022-09-20T03:17:50.606Z,93.42
2022-09-20T03:20:27.545Z,93.38
2022-09-20T03:23:10.796Z,93.55
2022-09-20T03:25:52.266Z,93.49
2022-09-20T03:28:38.648Z,93.54
2022-09-20T03:31:27.164Z,93.44
2022-09-20T03:34:09.682Z,93.76
2022-09-20T03:36:49.324Z,93.91
2022-09-20T03:39:39.934Z,94.29
2022-09-20T03:42:17.865Z,94.52
2022-09-20T03:45:17.761Z,94.71
2022-09-20T03:48:23.525Z,94.42
2022-09-20T03:51:18.754Z,95.25
2022-09-20T03:54:03.968Z,95.46
2022-09-20T03:56:52.047Z,95.40
2022-09-20T03:59:29.408Z,95.65
2022-09-20T04:02:07.194Z,95.37
2022-09-20T04:04:41.946Z,95.61
2022-09-20T04:07:26.427Z,95.77
2022-09-20T04:10:03.726Z,96.32
2022-09-20T04:12:40.953Z,96.22
2022-09-20T04:15:13.331Z,96.33
2022-09-20T04:17:52.517Z,96.14
2022-09-20T04:20:24.961Z,96.33
2022-09-20T04:22:52.287Z,96.09
2022-09-20T04:25:22.305Z,96.22
2022-09-20T04:27:56.482Z,96.33
2022-09-20T04:30:30.118Z,96.26
2022-09-20T04:33:01.695Z,96.15
2022-09-20T04:36:22.656Z,96.01
2022-09-20T04:39:17.874Z,96.05
2022-09-20T04:41:53.124Z,95.93
2022-09-20T04:44:45.915Z,95.95
2022-09-20T04:47:25.386Z,95.46
2022-09-20T04:50:30.277Z,95.55
2022-09-20T04:53:14.884Z,95.45
2022-09-20T04:56:10.438Z,95.56
2022-09-20T04:58:49.668Z,95.33
2022-09-20T05:01:35.620Z,95.28
2022-09-20T05:04:26.238Z,95.17
2022-09-20T05:06:58.840Z,94.86
2022-09-20T05:09:50.118Z,94.83
2022-09-20T05:12:35.507Z,94.36
2022-09-20T05:15:09.403Z,94.54
2022-09-20T05:17:38.796Z,94.92
2022-09-20T05:20:43.837Z,94.84
2022-09-20T05:23:36.379Z,95.64
2022-09-20T05:26:13.001Z,95.42
2022-09-20T05:28:49.648Z,95.21
2022-09-20T05:31:38.116Z,94.81
2022-09-20T05:34:15.092Z,94.70
2022-09-20T05:37:09.473Z,94.68
2022-09-20T05:39:37.013Z,93.82
2022-09-20T05:42:18.333Z,94.36
2022-09-20T05:45:07.808Z,94.10
2022-09-20T05:47:50.304Z,93.64
2022-09-20T05:50:36.375Z,93.91
2022-09-20T05:53:41.675Z,93.43
2022-09-20T05:56:32.814Z,92.83
2022-09-20T05:59:46.795Z,92.88
2022-09-20T06:02:42.557Z,92.60
2022-09-20T06:05:14.182Z,92.58
2022-09-20T06:07:52.463Z,92.63
2022-09-20T06:10:31.572Z,92.27
2022-09-20T06:13:43.029Z,92.32
2022-09-20T06:16:15.377Z,92.16
2022-09-20T06:19:16.813Z,91.78
2022-09-20T06:21:55.012Z,91.06
2022-09-20T06:24:39.372Z,90.41
2022-09-20T06:27:10.382Z,90.40
2022-09-20T06:29:40.860Z,90.03
2022-09-20T06:32:08.246Z,89.47
2022-09-20T06:34:35.179Z,89.10
2022-09-20T06:37:36.980Z,88.73
2022-09-20T06:40:48.851Z,88.37
2022-09-20T06:43:16.044Z,88.43
2022-09-20T06:45:42.810Z,88.01
2022-09-20T06:48:13.207Z,88.18
2022-09-20T06:50:40.006Z,88.28
2022-09-20T06:53:06.643Z,87.22
2022-09-20T06:55:37.467Z,86.56
2022-09-20T06:58:04.222Z,87.38
2022-09-20T07:00:30.700Z,87.45
2022-09-20T07:02:57.238Z,87.30
2022-09-20T07:05:24.409Z,87.09
2022-09-20T07:07:50.799Z,87.00
2022-09-20T07:10:17.229Z,87.04
2022-09-20T07:12:43.632Z,86.28
2022-09-20T07:15:10.217Z,85.53
2022-09-20T07:17:36.637Z,85.26
2022-09-20T07:20:03.442Z,84.89
2022-09-20T07:22:29.838Z,85.16
2022-09-20T07:24:56.257Z,84.65
2022-09-20T07:27:24.725Z,84.39
2022-09-20T07:29:54.024Z,84.83
2022-09-20T07:32:20.415Z,85.04
2022-09-20T07:34:47.002Z,85.23
2022-09-20T07:37:13.951Z,85.03
2022-09-20T07:39:40.361Z,84.50
2022-09-20T07:42:08.077Z,84.23
2022-09-20T07:44:34.469Z,84.18
2022-09-20T07:47:01.201Z,84.16
2022-09-20T07:49:30.264Z,83.46
2022-09-20T07:51:56.805Z,83.52
2022-09-20T07:54:23.223Z,82.09
2022-09-20T07:56:49.613Z,81.85
2022-09-20T07:59:16.250Z,81.88
2022-09-20T08:01:42.808Z,81.77
2022-09-20T08:04:09.938Z,81.77
2022-09-20T08:06:37.957Z,82.15
2022-09-20T08:09:08.981Z,81.86
2022-09-20T08:11:39.408Z,80.95
2022-09-20T08:14:07.522Z,80.63
2022-09-20T08:16:39.330Z,80.61
2022-09-20T08:19:05.789Z,80.35
2022-09-20T08:21:33.587Z,79.47
2022-09-20T08:24:00.201Z,78.83
2022-09-20T08:26:28.304Z,78.35
2022-09-20T08:28:56.738Z,79.08
2022-09-20T08:31:26.602Z,79.57
2022-09-20T08:33:54.157Z,78.93
2022-09-20T08:36:23.901Z,78.65
2022-09-20T08:41:57.519Z,78.95
2022-09-20T08:44:36.621Z,79.02
2022-09-20T08:47:05.568Z,78.55
2022-09-20T08:49:32.381Z,78.65
2022-09-20T08:51:59.199Z,79.00
2022-09-20T08:54:32.026Z,79.10
2022-09-20T08:57:05.261Z,78.85
2022-09-20T08:59:32.066Z,78.90
2022-09-20T09:01:59.814Z,78.71
2022-09-20T09:04:34.541Z,78.78
2022-09-20T09:07:01.023Z,78.86
2022-09-20T09:09:28.920Z,78.78
2022-09-20T09:11:56.973Z,78.79
2022-09-20T09:14:48.244Z,78.90
2022-09-20T09:17:32.733Z,78.84
2022-09-20T09:20:28.726Z,78.50
2022-09-20T09:23:08.894Z,78.30
2022-09-20T09:25:39.510Z,78.21
2022-09-20T09:28:08.877Z,78.09
2022-09-20T09:30:47.520Z,78.03
2022-09-20T09:33:20.002Z,78.03
2022-09-20T09:35:53.880Z,78.52
2022-09-20T09:38:24.147Z,78.14
2022-09-20T09:40:56.274Z,77.85
2022-09-20T09:43:28.521Z,77.75
2022-09-20T09:45:56.987Z,76.49
2022-09-20T09:48:30.566Z,76.83
2022-09-20T09:51:15.354Z,77.27
2022-09-20T09:53:42.725Z,76.95
2022-09-20T09:56:30.942Z,75.88
2022-09-20T09:59:30.685Z,76.29
2022-09-20T10:02:13.041Z,75.96
2022-09-20T10:04:51.657Z,75.42
2022-09-20T10:07:35.678Z,75.53
2022-09-20T10:10:41.351Z,75.85
2022-09-20T10:13:35.973Z,75.11
2022-09-20T10:16:32.335Z,74.25
2022-09-20T10:19:08.532Z,74.71
2022-09-20T10:21:52.225Z,74.48
2022-09-20T10:24:30.467Z,73.67
2022-09-20T10:26:59.801Z,73.17
2022-09-20T10:29:41.861Z,73.34
2022-09-20T10:32:40.189Z,72.76
2022-09-20T10:35:16.003Z,72.39
2022-09-20T10:38:04.007Z,73.22
2022-09-20T10:41:16.883Z,73.39
2022-09-20T10:44:05.362Z,73.13
2022-09-20T10:46:53.743Z,72.99
2022-09-20T10:49:50.382Z,72.58
2022-09-20T10:52:46.789Z,72.09
2022-09-20T10:55:31.891Z,71.77
2022-09-20T10:58:15.997Z,71.50
2022-09-20T11:01:02.179Z,70.45
2022-09-20T11:03:37.798Z,70.94
2022-09-20T11:06:15.957Z,71.41
2022-09-20T11:08:43.308Z,69.85
2022-09-20T11:11:12.406Z,69.51
2022-09-20T11:14:00.037Z,68.63
2022-09-20T11:16:38.269Z,69.39
2022-09-20T11:19:16.792Z,68.30
2022-09-20T11:21:48.365Z,67.32
2022-09-20T11:24:35.105Z,67.42
2022-09-20T11:27:14.466Z,68.01
2022-09-20T11:29:46.839Z,68.47
2022-09-20T11:32:27.436Z,69.76
2022-09-20T11:35:10.590Z,70.41
2022-09-20T11:37:43.585Z,66.67
2022-09-20T11:40:22.522Z,65.59
2022-09-20T11:42:50.076Z,66.25
2022-09-20T11:45:16.633Z,66.70
2022-09-20T11:47:55.704Z,67.20
2022-09-20T11:50:56.714Z,66.21
2022-09-20T11:53:37.016Z,65.79
2022-09-20T11:56:10.710Z,64.71
2022-09-20T11:58:48.169Z,65.07
2022-09-20T12:01:16.457Z,65.39
2022-09-20T12:03:50.652Z,65.31
2022-09-20T12:06:33.244Z,64.29
2022-09-20T12:09:03.522Z,63.21
2022-09-20T12:11:36.071Z,62.07
2022-09-20T12:14:07.217Z,62.68
2022-09-20T12:16:42.205Z,62.49
2022-09-20T12:19:36.290Z,62.30
2022-09-20T12:22:05.335Z,62.17
2022-09-20T12:24:34.131Z,62.17
2022-09-20T12:27:02.807Z,59.94
2022-09-20T12:29:32.910Z,60.25
2022-09-20T12:32:05.349Z,60.79
2022-09-20T12:34:36.508Z,60.36
2022-09-20T12:37:04.637Z,60.87
2022-09-20T12:39:36.024Z,61.29
2022-09-20T12:42:03.697Z,61.66
2022-09-20T12:44:32.222Z,61.34
2022-09-20T12:47:02.521Z,56.05
2022-09-20T12:49:51.533Z,55.43
2022-09-20T12:52:57.067Z,56.65
2022-09-20T12:55:33.050Z,55.88
2022-09-20T12:58:16.702Z,56.01
2022-09-20T13:01:04.417Z,57.06
2022-09-20T13:03:39.731Z,57.21
2022-09-20T13:06:06.202Z,56.73
2022-09-20T13:08:36.607Z,55.57
2022-09-20T13:11:13.542Z,55.14
2022-09-20T13:13:44.589Z,54.33
2022-09-20T13:16:20.047Z,54.12
2022-09-20T13:18:47.337Z,53.91
2022-09-20T13:21:13.796Z,55.05
2022-09-20T13:23:48.285Z,55.76
2022-09-20T13:26:16.030Z,55.53
2022-09-20T13:28:54.531Z,52.86
2022-09-20T13:31:20.904Z,51.55
2022-09-20T13:33:50.469Z,51.56
2022-09-20T13:36:24.684Z,51.65
2022-09-20T13:38:51.318Z,52.25
2022-09-20T13:41:17.974Z,52.81
2022-09-20T13:43:46.381Z,53.05
2022-09-20T13:46:32.928Z,52.13
2022-09-20T13:49:12.977Z,51.33
2022-09-20T13:51:39.465Z,51.04
2022-09-20T13:54:22.026Z,50.49
2022-09-20T13:56:49.474Z,50.69
2022-09-20T13:59:19.495Z,50.57
2022-09-20T14:01:51.653Z,50.51
2022-09-20T14:04:23.778Z,50.07
2022-09-20T14:06:51.904Z,50.16
2022-09-20T14:09:39.189Z,50.29
2022-09-20T14:12:06.159Z,50.40
2022-09-20T14:14:34.222Z,50.76
2022-09-20T14:17:01.862Z,50.28
2022-09-20T14:19:33.515Z,49.10
2022-09-20T14:22:04.465Z,49.26
2022-09-20T14:24:35.293Z,48.99
2022-09-20T14:27:15.011Z,49.83
2022-09-20T14:30:04.542Z,49.89
2022-09-20T14:32:50.703Z,46.21
2022-09-20T14:35:19.428Z,46.20
2022-09-20T14:37:48.904Z,45.80
2022-09-20T14:40:24.498Z,46.38
2022-09-20T14:43:00.633Z,46.77
2022-09-20T14:45:30.803Z,46.28
2022-09-20T14:48:06.871Z,46.48
2022-09-20T14:50:39.844Z,47.36
2022-09-20T14:53:21.479Z,47.53
2022-09-20T14:56:09.068Z,46.84
2022-09-20T14:59:09.326Z,48.50
2022-09-20T15:01:37.561Z,48.21
2022-09-20T15:04:09.468Z,48.48
2022-09-20T15:06:38.915Z,47.96
2022-09-20T15:09:05.568Z,48.58
2022-09-20T15:11:32.117Z,47.57
2022-09-20T15:13:58.510Z,46.24
2022-09-20T15:16:24.950Z,45.41
2022-09-20T15:18:51.396Z,44.98
2022-09-20T15:21:17.894Z,46.26
2022-09-20T15:23:44.317Z,42.59
2022-09-20T15:26:13.211Z,42.89
2022-09-20T15:28:40.238Z,42.52
2022-09-20T15:31:06.769Z,44.01
2022-09-20T15:33:33.505Z,44.03
2022-09-20T15:36:02.097Z,44.95
2022-09-20T15:38:28.638Z,44.45
2022-09-20T15:40:55.089Z,44.83
2022-09-20T15:43:24.235Z,44.76
2022-09-20T15:45:52.899Z,43.38
2022-09-20T15:48:21.790Z,42.86
2022-09-20T15:51:07.882Z,44.43
2022-09-20T15:53:36.870Z,45.15
2022-09-20T15:56:05.589Z,45.39
2022-09-20T15:58:36.106Z,46.08
2022-09-20T16:01:05.903Z,46.86
2022-09-20T16:03:32.717Z,46.97
2022-09-20T16:06:04.119Z,47.92
2022-09-20T16:08:36.326Z,48.68
2022-09-20T16:11:03.144Z,49.00
2022-09-20T16:13:29.949Z,50.05
2022-09-20T16:15:58.076Z,50.47
2022-09-20T16:18:43.486Z,50.65
2022-09-20T16:21:12.379Z,51.12
2022-09-20T16:23:39.870Z,50.52
2022-09-20T16:26:06.927Z,50.62
2022-09-20T16:28:33.362Z,50.36
2022-09-20T16:31:00.080Z,50.00
2022-09-20T16:33:26.525Z,49.90
2022-09-20T16:35:52.929Z,50.14
2022-09-20T16:38:19.352Z,50.17
2022-09-20T16:40:51.411Z,50.60
2022-09-20T16:43:23.934Z,51.14
2022-09-20T16:45:59.286Z,51.84
2022-09-20T16:48:31.189Z,52.44
2022-09-20T16:50:59.040Z,53.19
2022-09-20T16:53:26.326Z,53.42
2022-09-20T16:55:55.691Z,53.42
2022-09-20T16:58:29.725Z,53.22
2022-09-20T17:01:06.260Z,53.13
2022-09-20T17:03:34.102Z,53.31
2022-09-20T17:06:03.601Z,53.83
2022-09-20T17:08:30.003Z,53.98
2022-09-20T17:11:01.114Z,54.18
2022-09-20T17:13:32.898Z,54.69
2022-09-20T17:16:01.110Z,54.97
2022-09-20T17:18:27.686Z,54.99
2022-09-20T17:20:54.065Z,55.03
2022-09-20T17:23:21.048Z,55.09
2022-09-20T17:25:48.136Z,55.54
2022-09-20T17:28:14.706Z,55.57
2022-09-20T17:30:41.125Z,55.87
2022-09-20T17:33:07.517Z,56.12
2022-09-20T17:35:33.904Z,56.53
2022-09-20T17:38:00.302Z,56.62
2022-09-20T17:40:26.853Z,57.24
2022-09-20T17:42:55.161Z,57.49
2022-09-20T17:45:21.541Z,57.64
2022-09-20T17:47:47.928Z,57.66
2022-09-20T17:50:15.308Z,57.89
2022-09-20T17:52:42.180Z,58.20
2022-09-20T17:55:08.683Z,58.37
2022-09-20T17:57:35.081Z,58.36
2022-09-20T18:00:01.972Z,58.82
2022-09-20T18:02:28.377Z,58.85
2022-09-20T18:04:54.782Z,58.85
2022-09-20T18:07:21.170Z,59.08
2022-09-20T18:09:47.668Z,59.25
2022-09-20T18:12:18.889Z,59.49
2022-09-20T18:14:47.280Z,59.79
2022-09-20T18:17:13.698Z,60.22
2022-09-20T18:19:41.142Z,60.36
2022-09-20T18:22:07.546Z,60.73
2022-09-20T18:24:33.973Z,60.65
2022-09-20T18:27:04.463Z,60.91
2022-09-20T18:29:36.417Z,61.11
2022-09-20T18:32:02.933Z,61.30
2022-09-20T18:34:33.975Z,61.50
2022-09-20T18:37:01.331Z,61.65
2022-09-20T18:39:30.946Z,61.71
2022-09-20T18:41:57.386Z,62.01
2022-09-20T18:44:24.225Z,62.01
2022-09-20T18:46:54.900Z,62.35
2022-09-20T18:49:21.759Z,63.01
2022-09-20T18:51:48.824Z,62.88
2022-09-20T18:54:15.500Z,63.23
2022-09-20T18:56:43.952Z,63.62
2022-09-20T18:59:21.842Z,63.78
2022-09-20T19:01:55.819Z,63.92
2022-09-20T19:04:46.706Z,64.20
2022-09-20T19:07:16.036Z,64.46
2022-09-20T19:10:19.417Z,64.80
2022-09-20T19:13:05.016Z,64.84
2022-09-20T19:15:41.020Z,65.11
2022-09-20T19:18:25.650Z,65.30
2022-09-20T19:20:59.359Z,65.34
2022-09-20T19:24:05.850Z,65.69
2022-09-20T19:26:38.039Z,65.94
2022-09-20T19:29:16.674Z,66.15
2022-09-20T19:31:43.298Z,66.19
2022-09-20T19:34:18.176Z,66.32
2022-09-20T19:37:19.871Z,66.46
2022-09-20T19:40:14.047Z,66.62
2022-09-20T19:43:03.561Z,66.79
2022-09-20T19:45:57.756Z,66.87
2022-09-20T19:48:40.860Z,67.06
2022-09-20T19:51:11.612Z,67.26
2022-09-20T19:53:39.213Z,67.18
2022-09-20T19:56:27.755Z,67.21
2022-09-20T19:58:56.267Z,67.50
2022-09-20T20:01:24.171Z,67.36
2022-09-20T20:03:51.809Z,67.34
2022-09-20T20:06:38.952Z,67.33
2022-09-20T20:09:36.463Z,67.42
2022-09-20T20:12:02.743Z,67.14
2022-09-20T20:14:41.249Z,67.38
2022-09-20T20:17:33.445Z,67.41
2022-09-20T20:20:06.057Z,67.46
2022-09-20T20:23:04.433Z,67.51
2022-09-20T20:25:50.094Z,67.64
2022-09-20T20:28:16.470Z,67.78
2022-09-20T20:30:42.881Z,68.09
2022-09-20T20:33:16.059Z,68.25
2022-09-20T20:35:42.551Z,68.42
2022-09-20T20:38:10.552Z,68.68
2022-09-20T20:40:37.734Z,68.64
2022-09-20T20:43:06.089Z,68.86
2022-09-20T20:45:32.550Z,69.20
2022-09-20T20:47:59.239Z,69.56
2022-09-20T20:50:27.003Z,69.87
2022-09-20T20:52:54.204Z,70.18
2022-09-20T20:55:20.600Z,70.28
2022-09-20T20:57:57.983Z,70.37
2022-09-20T21:00:25.608Z,70.20
2022-09-20T21:02:59.741Z,70.08
2022-09-20T21:05:28.026Z,70.02
2022-09-20T21:07:54.948Z,70.15
2022-09-20T21:10:22.261Z,70.54
2022-09-20T21:12:50.303Z,70.54
2022-09-20T21:15:20.047Z,70.98
2022-09-20T21:17:53.123Z,71.67
2022-09-20T21:20:20.314Z,71.78
2022-09-20T21:22:46.731Z,71.97
2022-09-20T21:25:13.172Z,72.51
2022-09-20T21:27:39.606Z,73.06
2022-09-20T21:30:06.600Z,73.21
2022-09-20T21:32:32.982Z,73.15
2022-09-20T21:34:59.471Z,73.29
2022-09-20T21:37:25.893Z,73.41
2022-09-20T21:39:54.372Z,73.29
2022-09-20T21:42:20.768Z,73.42
2022-09-20T21:44:47.169Z,73.24
2022-09-20T21:47:20.476Z,73.53
2022-09-20T21:49:47.615Z,73.36
2022-09-20T21:52:14.470Z,73.38
2022-09-20T21:54:40.885Z,73.58
2022-09-20T21:57:07.382Z,73.56
2022-09-20T21:59:33.760Z,73.70
2022-09-20T22:02:00.170Z,73.76
2022-09-20T22:04:29.132Z,73.79
2022-09-20T22:06:55.581Z,73.97
2022-09-20T22:09:24.025Z,73.84
2022-09-20T22:11:50.676Z,73.94
2022-09-20T22:14:19.354Z,73.82
2022-09-20T22:16:46.994Z,73.70
2022-09-20T22:19:14.993Z,73.46
2022-09-20T22:21:46.727Z,73.23
2022-09-20T22:24:14.172Z,73.11
2022-09-20T22:26:45.725Z,73.15
2022-09-20T22:29:12.257Z,73.03
2022-09-20T22:31:46.732Z,73.30
2022-09-20T22:34:18.054Z,72.82
2022-09-20T22:36:44.494Z,72.86
2022-09-20T22:39:12.433Z,73.00
2022-09-20T22:41:40.972Z,72.97
2022-09-20T22:44:07.578Z,72.82
2022-09-20T22:46:34.385Z,72.95
2022-09-20T22:49:01.063Z,73.30
2022-09-20T22:51:33.558Z,73.65
2022-09-20T22:54:00.752Z,73.79
2022-09-20T22:56:31.098Z,73.37
2022-09-20T22:59:01.976Z,73.49
2022-09-20T23:01:47.799Z,73.32
2022-09-20T23:04:16.545Z,73.31
2022-09-20T23:06:44.930Z,73.35
2022-09-20T23:09:12.917Z,73.43
2022-09-20T23:11:41.863Z,73.54
2022-09-20T23:14:10.912Z,73.26
2022-09-20T23:16:37.704Z,73.35
2022-09-20T23:19:05.654Z,73.62
2022-09-20T23:21:32.809Z,73.93
2022-09-20T23:24:01.236Z,74.13
2022-09-20T23:26:29.810Z,74.09
2022-09-20T23:29:07.401Z,74.40
2022-09-20T23:31:36.413Z,74.62
2022-09-20T23:34:04.532Z,74.56
2022-09-20T23:36:32.457Z,74.80
2022-09-20T23:38:58.979Z,74.12
2022-09-20T23:41:26.791Z,74.17
2022-09-20T23:43:53.643Z,73.86
2022-09-20T23:46:21.461Z,74.09
2022-09-20T23:48:48.122Z,73.97
2022-09-20T23:51:16.781Z,74.01
2022-09-20T23:53:43.659Z,74.14
2022-09-20T23:56:11.108Z,74.54
2022-09-20T23:58:38.803Z,74.12
